»·PEaware :: SWA4776 KLAS-KSNA

SWA4776 :: KLAS-KSNA

FLIGHT INFORMATION

Flight Status: Arrived
Operator:
Southwest Airlines
More flights by this operator :: More flights under this callsign
Pilot: Anonymous 14085 (14085)
Aircraft: BOEING 737-800
(B738)
More flights by this aircraft type
Origin: KLAS McCarran Intl
United States
Destination: KSNA John Wayne-Orange Co
United States
More flights between these airports :: More routes between these airports
Route: +BOACH7 WHIGG FEYLA DSNEE1
File this flight plan on PilotEdge
Remarks: PBN / A1B1C1D1S1S2 DOF / 170520 REG / N806SB OPR / SWA RMK / TCAS SIMBRIEF
Altitude:
(Current/Filed)
30,000ft
Speed:
(Current/Filed)
440kts
Departed: 20-May-17 02:01 PM
Arrived: 20-May-17 02:40 PM
Distance/Time
Traveled:
197nm/0:39
Distance/Time
To Go:
Arrived

Flight Plot

Page will automatically refresh every two minutes.

Flight plan parsing failed; only flown route is shown


Map Options




Map Legend


Flown Route
Filed Route
Departure Airport
Arrival Airport
Navaid (VOR, NDB)
Fix

Horizontal Profiles

Position Reports

Time Latitude Longitude Heading Altitude Ground
Speed
20-May-17 13:44 36.079756 -115.146262 342 2149ft 0kts
20-May-17 13:45 36.079756 -115.146262 342 2149ft 0kts
20-May-17 13:46 36.079756 -115.146262 342 2149ft 0kts
20-May-17 13:47 36.079756 -115.146262 342 2149ft 0kts
20-May-17 13:48 36.079756 -115.146262 342 2149ft 0kts
20-May-17 13:49 36.079756 -115.146262 342 2149ft 0kts
20-May-17 13:50 36.079756 -115.146262 342 2149ft 0kts
20-May-17 13:51 36.079756 -115.146262 342 2149ft 0kts
20-May-17 13:52 36.079756 -115.146262 342 2149ft 0kts
20-May-17 13:53 36.079756 -115.146262 342 2149ft 0kts
20-May-17 13:54 36.079756 -115.146262 342 2149ft 0kts
20-May-17 13:55 36.079756 -115.146262 342 2149ft 0kts
20-May-17 13:56 36.079591 -115.146196 342 2149ft 3kts
20-May-17 13:57 36.079137 -115.146255 100 2149ft 0kts
20-May-17 13:58 36.077567 -115.143254 91 2149ft 12kts
20-May-17 13:59 36.077500 -115.138852 91 2149ft 17kts
20-May-17 14:00 36.077511 -115.136519 90 2149ft 15kts
20-May-17 14:01 36.077516 -115.132018 91 2149ft 15kts
20-May-17 14:02 36.077459 -115.126332 118 2149ft 11kts
20-May-17 14:03 36.076392 -115.149453 272 2542ft 178kts
20-May-17 14:04 36.076824 -115.216852 269 5326ft 244kts
20-May-17 14:05 36.030948 -115.289945 201 7346ft 323kts
20-May-17 14:06 35.950645 -115.307107 181 7220ft 283kts
20-May-17 14:07 35.870013 -115.314146 184 10197ft 303kts
20-May-17 14:08 35.779520 -115.306218 173 12593ft 341kts
20-May-17 14:09 35.691977 -115.304222 199 14978ft 355kts
20-May-17 14:10 35.616776 -115.379381 229 17702ft 358kts
20-May-17 14:11 35.548238 -115.469789 230 20235ft 369kts
20-May-17 14:12 35.478485 -115.563406 231 22558ft 380kts
20-May-17 14:13 35.407282 -115.659345 230 24695ft 390kts
20-May-17 14:14 35.334138 -115.757603 231 27304ft 389kts
20-May-17 14:15 35.262336 -115.853803 231 29924ft 381kts
20-May-17 14:16 35.187710 -115.950816 228 30033ft 411kts
20-May-17 14:17 35.109286 -116.049687 229 29847ft 440kts
20-May-17 14:18 35.027657 -116.152251 229 29117ft 424kts
20-May-17 14:19 34.946368 -116.254124 229 28416ft 419kts
20-May-17 14:20 34.867289 -116.353392 229 27868ft 419kts
20-May-17 14:21 34.788725 -116.453475 229 26537ft 408kts
20-May-17 14:22 34.710874 -116.552381 229 25213ft 402kts
20-May-17 14:23 34.626612 -116.639883 222 23931ft 400kts
20-May-17 14:24 34.542978 -116.721746 222 22460ft 392kts
20-May-17 14:25 34.462278 -116.807923 227 20943ft 384kts
20-May-17 14:26 34.388560 -116.893798 226 18758ft 375kts
20-May-17 14:27 34.314715 -116.979341 224 16265ft 362kts
20-May-17 14:28 34.244269 -117.049198 211 14175ft 348kts
20-May-17 14:29 34.161632 -117.107260 204 13171ft 348kts
20-May-17 14:30 34.073101 -117.155083 204 12500ft 350kts
20-May-17 14:31 33.989296 -117.209931 227 12129ft 343kts
20-May-17 14:32 33.928643 -117.291594 231 11105ft 302kts
20-May-17 14:33 33.876379 -117.365288 230 9518ft 287kts
20-May-17 14:34 33.825620 -117.436805 233 8003ft 271kts
20-May-17 14:35 33.798854 -117.514682 266 7980ft 255kts
20-May-17 14:36 33.798526 -117.599938 271 7061ft 254kts
20-May-17 14:37 33.798786 -117.681553 271 5968ft 238kts
20-May-17 14:38 33.799031 -117.756833 271 4336ft 212kts
20-May-17 14:39 33.770931 -117.810460 201 2212ft 202kts
20-May-17 14:40 33.725867 -117.835986 211 1221ft 163kts
20-May-17 14:41 33.689772 -117.859860 211 285ft 141kts
20-May-17 14:42 33.671630 -117.871395 209 64ft 13kts
20-May-17 14:43 33.669198 -117.870846 47 64ft 15kts
20-May-17 14:44 33.672727 -117.867668 38 64ft 17kts
20-May-17 14:45 33.675072 -117.865606 115 64ft 6kts
20-May-17 14:46 33.674967 -117.865336 112 64ft 0kts

Navigation Log

Ident Type
Flight plan parsing failed, navigation log unavailable